This is the latest recevied weather packets stored in our database for station/object EA1BVF-10. If no packets are shown the sender has not sent any weather packets the latest 10 day(s).
| Time | Temp. | Humidity | Pressure | Rain* | Wind** | Luminosity | Snow |
|---|---|---|---|---|---|---|---|
| 1777808324 | 12.22° C | 82% | 1027.7 hPa | - | - | - | - |
| 1777806526 | 11.67° C | 83% | 1027.8 hPa | - | - | - | - |
| 1777804724 | 11.67° C | 83% | 1027.8 hPa | - | - | - | - |
| 1777802926 | 11.67° C | 83% | 1027.9 hPa | - | - | - | - |
| 1777801123 | 11.67° C | 84% | 1027.9 hPa | - | - | - | - |
| 1777799324 | 11.11° C | 84% | 1027.9 hPa | - | - | - | - |
| 1777797524 | 11.11° C | 85% | 1028 hPa | - | - | - | - |
| 1777795723 | 11.11° C | 86% | 1027.9 hPa | - | - | - | - |
| 1777793923 | 11.11° C | 87% | 1027.6 hPa | - | - | - | - |
| 1777792123 | 10.56° C | 87% | 1027.8 hPa | - | - | - | - |
| 1777790323 | 10.56° C | 88% | 1027.6 hPa | - | - | - | - |
| 1777788524 | 10.56° C | 89% | 1027.6 hPa | - | - | - | - |
| 1777786723 | 10° C | 89% | 1027.4 hPa | - | - | - | - |
| 1777786521 | 10° C | 89% | 1027.5 hPa | - | - | - | - |
| 1777768092 | 13.89° C | 75% | 1028.5 hPa | - | - | - | - |
| 1777767768 | 14.44° C | 75% | 1028.6 hPa | - | - | - | - |
| 1777767542 | 14.44° C | 75% | 1028.6 hPa | - | - | - | - |
| 1777767327 | 14.44° C | 75% | 1028.6 hPa | - | - | - | - |
| 1777767132 | 14.44° C | 75% | 1028.7 hPa | - | - | - | - |
| 1777766951 | 14.44° C | 75% | 1028.9 hPa | - | - | - | - |
| 1777766767 | 14.44° C | 75% | 1029 hPa | - | - | - | - |
| 1777766592 | 14.44° C | 75% | 1028.9 hPa | - | - | - | - |
| 1777766374 | 14.44° C | 75% | 1029 hPa | - | - | - | - |
| 1777766196 | 14.44° C | 74% | 1029 hPa | - | - | - | - |
| 1777766026 | 14.44° C | 74% | 1028.9 hPa | - | - | - | - |
* Rain since midnight (hover to see other rain measurements)
** Current wind speed in m/s (hover to see current wind gust speed)